FDX5031 RKPK-RKPC
Flight info
| Callsign | FDX5031 |
|---|---|
| Flight time | 0h 37m |
| Altitude | 18000 |
| Route | ENGOT Y572 UPGOS |
| Aircraft | MD11/H-SDE1E2E3FGHIJ2J3J4J5M1RWXY/LB1D1 |
Departure
| Time | 2026-05-07 10:30 |
|---|---|
| Airport | Gimhae International Airport (RKPK) |
Arrival
| Time | 2026-05-07 11:07 |
|---|---|
| Airport | Jeju International Airport (RKPC) |
| Time | Latitude | Longitude | Altitude | Speed | Heading |
|---|---|---|---|---|---|
| 2026-05-07 10:04 | 35.17824 | 128.94763 | 31 ft | 0 kts | 59° |
| 2026-05-07 10:14 | 35.17818 | 128.94749 | 31 ft | 3 kts | 58° |
| 2026-05-07 10:14 | 35.17807 | 128.94728 | 30 ft | 3 kts | 58° |
| 2026-05-07 10:15 | 35.17796 | 128.94708 | 29 ft | 3 kts | 61° |
| 2026-05-07 10:15 | 35.17787 | 128.94686 | 28 ft | 3 kts | 67° |
| 2026-05-07 10:15 | 35.17781 | 128.94669 | 31 ft | 3 kts | 72° |
| 2026-05-07 10:17 | 35.17782 | 128.94671 | 31 ft | 1 kts | 69° |
| 2026-05-07 10:17 | 35.17783 | 128.94674 | 31 ft | 0 kts | 66° |
| 2026-05-07 10:17 | 35.17795 | 128.94704 | 29 ft | 7 kts | 62° |
| 2026-05-07 10:17 | 35.17815 | 128.94745 | 31 ft | 0 kts | 58° |
| 2026-05-07 10:23 | 35.17814 | 128.94749 | 31 ft | 1 kts | 77° |
| 2026-05-07 10:23 | 35.17809 | 128.94757 | 31 ft | 1 kts | 120° |
| 2026-05-07 10:23 | 35.17798 | 128.94757 | 31 ft | 2 kts | 184° |
| 2026-05-07 10:23 | 35.17793 | 128.94744 | 31 ft | 1 kts | 248° |
| 2026-05-07 10:24 | 35.17781 | 128.94688 | 31 ft | 13 kts | 249° |
| 2026-05-07 10:24 | 35.17723 | 128.94564 | 31 ft | 17 kts | 237° |
| 2026-05-07 10:24 | 35.17696 | 128.94479 | 31 ft | 2 kts | 278° |
| 2026-05-07 10:24 | 35.17705 | 128.94446 | 31 ft | 9 kts | 290° |
| 2026-05-07 10:25 | 35.17745 | 128.94333 | 31 ft | 20 kts | 291° |
| 2026-05-07 10:25 | 35.17832 | 128.94213 | 31 ft | 18 kts | 349° |
| 2026-05-07 10:25 | 35.17956 | 128.94196 | 30 ft | 18 kts | 354° |
| 2026-05-07 10:25 | 35.18087 | 128.94179 | 31 ft | 21 kts | 354° |
| 2026-05-07 10:26 | 35.18252 | 128.94158 | 30 ft | 27 kts | 354° |
| 2026-05-07 10:26 | 35.18452 | 128.94133 | 30 ft | 30 kts | 354° |
| 2026-05-07 10:26 | 35.18654 | 128.94107 | 30 ft | 28 kts | 354° |
| 2026-05-07 10:26 | 35.18841 | 128.94082 | 31 ft | 26 kts | 354° |
| 2026-05-07 10:27 | 35.19015 | 128.94061 | 31 ft | 24 kts | 354° |
| 2026-05-07 10:27 | 35.19175 | 128.94041 | 31 ft | 22 kts | 354° |
| 2026-05-07 10:27 | 35.19324 | 128.94023 | 30 ft | 21 kts | 354° |
| 2026-05-07 10:27 | 35.19399 | 128.93975 | 30 ft | 3 kts | 287° |
| 2026-05-07 10:28 | 35.19401 | 128.93945 | 30 ft | 4 kts | 272° |
| 2026-05-07 10:28 | 35.19400 | 128.93911 | 30 ft | 5 kts | 265° |
| 2026-05-07 10:28 | 35.19396 | 128.93864 | 30 ft | 7 kts | 265° |
| 2026-05-07 10:28 | 35.19387 | 128.93790 | 30 ft | 5 kts | 246° |
| 2026-05-07 10:29 | 35.19359 | 128.93760 | 31 ft | 6 kts | 206° |
| 2026-05-07 10:29 | 35.19306 | 128.93757 | 31 ft | 9 kts | 174° |
| 2026-05-07 10:29 | 35.19111 | 128.93781 | 33 ft | 67 kts | 173° |
| 2026-05-07 10:30 | 35.17184 | 128.94059 | 385 ft | 176 kts | 174° |
| 2026-05-07 10:30 | 35.15937 | 128.94250 | 1312 ft | 178 kts | 180° |
| 2026-05-07 10:30 | 35.14737 | 128.94416 | 2334 ft | 176 kts | 181° |
| 2026-05-07 10:30 | 35.13467 | 128.94571 | 3177 ft | 185 kts | 179° |
| 2026-05-07 10:31 | 35.12093 | 128.94732 | 3516 ft | 219 kts | 179° |
| 2026-05-07 10:31 | 35.10485 | 128.94925 | 3725 ft | 242 kts | 178° |
| 2026-05-07 10:31 | 35.08777 | 128.95144 | 4095 ft | 248 kts | 178° |
| 2026-05-07 10:31 | 35.07050 | 128.95371 | 4464 ft | 250 kts | 178° |
| 2026-05-07 10:32 | 35.05330 | 128.95472 | 4822 ft | 246 kts | 187° |
| 2026-05-07 10:32 | 35.03626 | 128.95286 | 4986 ft | 246 kts | 191° |
| 2026-05-07 10:32 | 35.01934 | 128.95030 | 5011 ft | 244 kts | 191° |
| 2026-05-07 10:32 | 35.00244 | 128.94797 | 5017 ft | 245 kts | 187° |
| 2026-05-07 10:33 | 34.98504 | 128.94774 | 5027 ft | 260 kts | 183° |
| 2026-05-07 10:33 | 34.96652 | 128.94831 | 5025 ft | 267 kts | 182° |
| 2026-05-07 10:33 | 34.94788 | 128.94912 | 5026 ft | 268 kts | 182° |
| 2026-05-07 10:33 | 34.92922 | 128.94981 | 5017 ft | 268 kts | 185° |
| 2026-05-07 10:34 | 34.91099 | 128.94635 | 5113 ft | 264 kts | 206° |
| 2026-05-07 10:34 | 34.89605 | 128.93458 | 6056 ft | 255 kts | 228° |
| 2026-05-07 10:34 | 34.88676 | 128.91651 | 6885 ft | 253 kts | 250° |
| 2026-05-07 10:34 | 34.88192 | 128.89577 | 7656 ft | 256 kts | 257° |
| 2026-05-07 10:35 | 34.87809 | 128.87459 | 8504 ft | 257 kts | 258° |
| 2026-05-07 10:35 | 34.87437 | 128.85327 | 9354 ft | 258 kts | 258° |
| 2026-05-07 10:35 | 34.87060 | 128.83175 | 10132 ft | 261 kts | 258° |
| 2026-05-07 10:35 | 34.86665 | 128.80936 | 10319 ft | 288 kts | 258° |
| 2026-05-07 10:36 | 34.86221 | 128.78446 | 10449 ft | 313 kts | 257° |
| 2026-05-07 10:36 | 34.85740 | 128.75762 | 10706 ft | 333 kts | 257° |
| 2026-05-07 10:36 | 34.85241 | 128.72994 | 11439 ft | 337 kts | 257° |
| 2026-05-07 10:36 | 34.84735 | 128.70196 | 12235 ft | 339 kts | 257° |
| 2026-05-07 10:37 | 34.84222 | 128.67369 | 12999 ft | 342 kts | 257° |
| 2026-05-07 10:37 | 34.83703 | 128.64515 | 13745 ft | 348 kts | 257° |
| 2026-05-07 10:37 | 34.83179 | 128.61640 | 14464 ft | 349 kts | 257° |
| 2026-05-07 10:37 | 34.82650 | 128.58739 | 15152 ft | 352 kts | 256° |
| 2026-05-07 10:38 | 34.82117 | 128.55821 | 15859 ft | 354 kts | 256° |
| 2026-05-07 10:38 | 34.81572 | 128.52888 | 16515 ft | 358 kts | 255° |
| 2026-05-07 10:38 | 34.80717 | 128.50025 | 16887 ft | 365 kts | 241° |
| 2026-05-07 10:38 | 34.79306 | 128.47487 | 17278 ft | 362 kts | 232° |
| 2026-05-07 10:39 | 34.77675 | 128.45155 | 17662 ft | 362 kts | 230° |
| 2026-05-07 10:39 | 34.75979 | 128.42869 | 17865 ft | 365 kts | 229° |
| 2026-05-07 10:39 | 34.74272 | 128.40581 | 17905 ft | 366 kts | 229° |
| 2026-05-07 10:39 | 34.72591 | 128.38305 | 17911 ft | 366 kts | 230° |
| 2026-05-07 10:40 | 34.70902 | 128.35992 | 17918 ft | 366 kts | 230° |
| 2026-05-07 10:40 | 34.69220 | 128.33670 | 17917 ft | 366 kts | 230° |
| 2026-05-07 10:40 | 34.67547 | 128.31348 | 17918 ft | 366 kts | 230° |
| 2026-05-07 10:40 | 34.65871 | 128.29018 | 17916 ft | 365 kts | 230° |
| 2026-05-07 10:41 | 34.64201 | 128.26693 | 17917 ft | 365 kts | 230° |
| 2026-05-07 10:41 | 34.62528 | 128.24363 | 17926 ft | 366 kts | 230° |
| 2026-05-07 10:41 | 34.60851 | 128.22029 | 17919 ft | 366 kts | 230° |
| 2026-05-07 10:41 | 34.59176 | 128.19700 | 17921 ft | 366 kts | 230° |
| 2026-05-07 10:42 | 34.57496 | 128.17366 | 17923 ft | 366 kts | 230° |
| 2026-05-07 10:42 | 34.55817 | 128.15034 | 17922 ft | 367 kts | 230° |
| 2026-05-07 10:42 | 34.54141 | 128.12708 | 17922 ft | 367 kts | 230° |
| 2026-05-07 10:42 | 34.52482 | 128.10408 | 17926 ft | 367 kts | 230° |
| 2026-05-07 10:43 | 34.50803 | 128.08080 | 17931 ft | 366 kts | 230° |
| 2026-05-07 10:43 | 34.49120 | 128.05749 | 17927 ft | 366 kts | 230° |
| 2026-05-07 10:43 | 34.47440 | 128.03424 | 17930 ft | 366 kts | 230° |
| 2026-05-07 10:43 | 34.45759 | 128.01098 | 17929 ft | 366 kts | 230° |
| 2026-05-07 10:44 | 34.44077 | 127.98773 | 17929 ft | 366 kts | 230° |
| 2026-05-07 10:44 | 34.42394 | 127.96447 | 17932 ft | 366 kts | 230° |
| 2026-05-07 10:44 | 34.40734 | 127.94156 | 17934 ft | 366 kts | 230° |
| 2026-05-07 10:44 | 34.39055 | 127.91841 | 17930 ft | 366 kts | 230° |
| 2026-05-07 10:45 | 34.37536 | 127.89746 | 17931 ft | 366 kts | 230° |
| 2026-05-07 10:45 | 34.35856 | 127.87431 | 17927 ft | 366 kts | 230° |
| 2026-05-07 10:45 | 34.34175 | 127.85114 | 17931 ft | 366 kts | 230° |
| 2026-05-07 10:45 | 34.32485 | 127.82789 | 17932 ft | 366 kts | 230° |
| 2026-05-07 10:46 | 34.31369 | 127.81254 | 17932 ft | 366 kts | 230° |
| 2026-05-07 10:46 | 34.29683 | 127.78937 | 17936 ft | 366 kts | 230° |
| 2026-05-07 10:46 | 34.27433 | 127.75846 | 17937 ft | 366 kts | 230° |
| 2026-05-07 10:46 | 34.26317 | 127.74315 | 17936 ft | 366 kts | 230° |
| 2026-05-07 10:47 | 34.24054 | 127.71231 | 17942 ft | 366 kts | 230° |
| 2026-05-07 10:47 | 34.22386 | 127.68963 | 17930 ft | 366 kts | 230° |
| 2026-05-07 10:47 | 34.20699 | 127.66665 | 17933 ft | 366 kts | 230° |
| 2026-05-07 10:47 | 34.19012 | 127.64364 | 17935 ft | 366 kts | 230° |
| 2026-05-07 10:48 | 34.17872 | 127.62807 | 17935 ft | 366 kts | 230° |
| 2026-05-07 10:48 | 34.15639 | 127.59758 | 17938 ft | 366 kts | 230° |
| 2026-05-07 10:48 | 34.13952 | 127.57455 | 17935 ft | 366 kts | 230° |
| 2026-05-07 10:48 | 34.12833 | 127.55929 | 17939 ft | 366 kts | 230° |
| 2026-05-07 10:49 | 34.11145 | 127.53626 | 17935 ft | 366 kts | 230° |
| 2026-05-07 10:49 | 34.09455 | 127.51322 | 17936 ft | 366 kts | 230° |
| 2026-05-07 10:49 | 34.07760 | 127.49012 | 17673 ft | 370 kts | 230° |
| 2026-05-07 10:49 | 34.06047 | 127.46679 | 16877 ft | 370 kts | 230° |
| 2026-05-07 10:50 | 34.04340 | 127.44357 | 16153 ft | 369 kts | 230° |
| 2026-05-07 10:50 | 34.02653 | 127.42063 | 15558 ft | 371 kts | 230° |
| 2026-05-07 10:50 | 34.00931 | 127.39713 | 14981 ft | 375 kts | 231° |
| 2026-05-07 10:50 | 33.99374 | 127.37186 | 14473 ft | 375 kts | 240° |
| 2026-05-07 10:51 | 33.98372 | 127.34308 | 13977 ft | 372 kts | 256° |
| 2026-05-07 10:51 | 33.98179 | 127.31217 | 13615 ft | 371 kts | 274° |
| 2026-05-07 10:51 | 33.98819 | 127.28218 | 13436 ft | 367 kts | 291° |
| 2026-05-07 10:51 | 34.00041 | 127.25630 | 13316 ft | 345 kts | 300° |
| 2026-05-07 10:52 | 34.01411 | 127.23354 | 13222 ft | 324 kts | 302° |
| 2026-05-07 10:52 | 34.02737 | 127.21258 | 13120 ft | 304 kts | 302° |
| 2026-05-07 10:52 | 34.03959 | 127.19308 | 12944 ft | 288 kts | 302° |
| 2026-05-07 10:52 | 34.05062 | 127.17312 | 12615 ft | 282 kts | 291° |
| 2026-05-07 10:53 | 34.05568 | 127.15076 | 12157 ft | 274 kts | 274° |
| 2026-05-07 10:53 | 34.05661 | 127.12796 | 11721 ft | 271 kts | 269° |
| 2026-05-07 10:53 | 34.05665 | 127.10526 | 11311 ft | 269 kts | 268° |
| 2026-05-07 10:53 | 34.05656 | 127.08304 | 11048 ft | 268 kts | 268° |
| 2026-05-07 10:54 | 34.05550 | 127.06070 | 10938 ft | 267 kts | 260° |
| 2026-05-07 10:54 | 34.04982 | 127.03947 | 10860 ft | 268 kts | 242° |
| 2026-05-07 10:54 | 34.03802 | 127.02211 | 10777 ft | 272 kts | 221° |
| 2026-05-07 10:54 | 34.02104 | 127.01130 | 10499 ft | 284 kts | 200° |
| 2026-05-07 10:55 | 34.00143 | 127.00786 | 10142 ft | 283 kts | 188° |
| 2026-05-07 10:55 | 33.98178 | 127.00701 | 9787 ft | 280 kts | 187° |
| 2026-05-07 10:55 | 33.96248 | 127.00654 | 9406 ft | 279 kts | 186° |
| 2026-05-07 10:55 | 33.94331 | 127.00602 | 9154 ft | 269 kts | 187° |
| 2026-05-07 10:56 | 33.92509 | 127.00525 | 9016 ft | 252 kts | 191° |
| 2026-05-07 10:56 | 33.90911 | 126.99932 | 8968 ft | 238 kts | 214° |
| 2026-05-07 10:56 | 33.89532 | 126.98822 | 8919 ft | 238 kts | 220° |
| 2026-05-07 10:56 | 33.88207 | 126.97620 | 8860 ft | 237 kts | 221° |
| 2026-05-07 10:57 | 33.86904 | 126.96417 | 8817 ft | 235 kts | 221° |
| 2026-05-07 10:57 | 33.85607 | 126.95211 | 8742 ft | 236 kts | 221° |
| 2026-05-07 10:57 | 33.84320 | 126.94012 | 8683 ft | 236 kts | 221° |
| 2026-05-07 10:57 | 33.83021 | 126.92801 | 8621 ft | 236 kts | 221° |
| 2026-05-07 10:58 | 33.81726 | 126.91592 | 8553 ft | 236 kts | 221° |
| 2026-05-07 10:58 | 33.80427 | 126.90379 | 8482 ft | 236 kts | 221° |
| 2026-05-07 10:58 | 33.79130 | 126.89168 | 8430 ft | 236 kts | 221° |
| 2026-05-07 10:58 | 33.77831 | 126.87954 | 8323 ft | 237 kts | 221° |
| 2026-05-07 10:59 | 33.76532 | 126.86742 | 8118 ft | 237 kts | 221° |
| 2026-05-07 10:59 | 33.75229 | 126.85525 | 7820 ft | 236 kts | 221° |
| 2026-05-07 10:59 | 33.73953 | 126.84335 | 7473 ft | 235 kts | 221° |
| 2026-05-07 10:59 | 33.72664 | 126.83132 | 7108 ft | 234 kts | 221° |
| 2026-05-07 11:00 | 33.71379 | 126.81933 | 6747 ft | 233 kts | 221° |
| 2026-05-07 11:00 | 33.70096 | 126.80737 | 6371 ft | 232 kts | 221° |
| 2026-05-07 11:00 | 33.68825 | 126.79552 | 6020 ft | 231 kts | 220° |
| 2026-05-07 11:00 | 33.67555 | 126.78369 | 5683 ft | 226 kts | 220° |
| 2026-05-07 11:01 | 33.66362 | 126.77261 | 5539 ft | 206 kts | 220° |
| 2026-05-07 11:01 | 33.65261 | 126.76187 | 5418 ft | 204 kts | 229° |
| 2026-05-07 11:01 | 33.64411 | 126.74841 | 5155 ft | 202 kts | 239° |
| 2026-05-07 11:01 | 33.63669 | 126.73442 | 4843 ft | 201 kts | 240° |
| 2026-05-07 11:02 | 33.62932 | 126.72026 | 4510 ft | 198 kts | 240° |
| 2026-05-07 11:02 | 33.62218 | 126.70648 | 4176 ft | 193 kts | 240° |
| 2026-05-07 11:02 | 33.61515 | 126.69284 | 3865 ft | 192 kts | 241° |
| 2026-05-07 11:02 | 33.60797 | 126.67885 | 3585 ft | 203 kts | 240° |
| 2026-05-07 11:03 | 33.60057 | 126.66463 | 3318 ft | 196 kts | 240° |
| 2026-05-07 11:03 | 33.59347 | 126.65101 | 3055 ft | 191 kts | 240° |
| 2026-05-07 11:03 | 33.58649 | 126.63752 | 2802 ft | 189 kts | 240° |
| 2026-05-07 11:03 | 33.57972 | 126.62440 | 2544 ft | 186 kts | 240° |
| 2026-05-07 11:04 | 33.57287 | 126.61107 | 2311 ft | 187 kts | 240° |
| 2026-05-07 11:04 | 33.56607 | 126.59784 | 2059 ft | 185 kts | 240° |
| 2026-05-07 11:04 | 33.55939 | 126.58483 | 1792 ft | 181 kts | 241° |
| 2026-05-07 11:04 | 33.55282 | 126.57202 | 1551 ft | 178 kts | 243° |
| 2026-05-07 11:05 | 33.54666 | 126.56003 | 1292 ft | 159 kts | 243° |
| 2026-05-07 11:05 | 33.54094 | 126.54882 | 1098 ft | 155 kts | 243° |
| 2026-05-07 11:05 | 33.53539 | 126.53792 | 892 ft | 153 kts | 243° |
| 2026-05-07 11:05 | 33.52980 | 126.52705 | 730 ft | 152 kts | 241° |
| 2026-05-07 11:06 | 33.52428 | 126.51614 | 491 ft | 155 kts | 242° |
| 2026-05-07 11:06 | 33.51864 | 126.50504 | 298 ft | 155 kts | 242° |
| 2026-05-07 11:06 | 33.51298 | 126.49397 | 98 ft | 152 kts | 241° |
| 2026-05-07 11:06 | 33.50842 | 126.48499 | 100 ft | 103 kts | 242° |
| 2026-05-07 11:07 | 33.50541 | 126.47915 | 102 ft | 65 kts | 238° |
| 2026-05-07 11:07 | 33.50349 | 126.47584 | 104 ft | 37 kts | 221° |
| 2026-05-07 11:07 | 33.50186 | 126.47496 | 104 ft | 5 kts | 165° |
| 2026-05-07 11:07 | 33.50175 | 126.47512 | 105 ft | 2 kts | 127° |
| 2026-05-07 11:08 | 33.50171 | 126.47531 | 102 ft | 4 kts | 102° |
| 2026-05-07 11:08 | 33.50181 | 126.47588 | 103 ft | 11 kts | 68° |
| 2026-05-07 11:08 | 33.50234 | 126.47697 | 103 ft | 19 kts | 57° |
| 2026-05-07 11:08 | 33.50305 | 126.47834 | 102 ft | 20 kts | 59° |
| 2026-05-07 11:09 | 33.50376 | 126.47973 | 102 ft | 19 kts | 58° |
| 2026-05-07 11:09 | 33.50446 | 126.48110 | 101 ft | 19 kts | 58° |
| 2026-05-07 11:09 | 33.50517 | 126.48248 | 100 ft | 19 kts | 58° |
| 2026-05-07 11:09 | 33.50589 | 126.48385 | 99 ft | 20 kts | 58° |
| 2026-05-07 11:10 | 33.50659 | 126.48525 | 99 ft | 20 kts | 58° |
| 2026-05-07 11:10 | 33.50731 | 126.48665 | 98 ft | 20 kts | 58° |
| 2026-05-07 11:10 | 33.50804 | 126.48805 | 100 ft | 20 kts | 58° |
| 2026-05-07 11:10 | 33.50877 | 126.48946 | 100 ft | 20 kts | 58° |
| 2026-05-07 11:11 | 33.50949 | 126.49087 | 97 ft | 20 kts | 58° |
| 2026-05-07 11:11 | 33.51019 | 126.49224 | 98 ft | 19 kts | 58° |
| 2026-05-07 11:11 | 33.51057 | 126.49312 | 97 ft | 2 kts | 92° |
| 2026-05-07 11:11 | 33.51052 | 126.49326 | 100 ft | 2 kts | 115° |
| 2026-05-07 11:12 | 33.51017 | 126.49352 | 99 ft | 10 kts | 151° |
| 2026-05-07 11:12 | 33.50950 | 126.49409 | 102 ft | 6 kts | 125° |
| 2026-05-07 11:12 | 33.50941 | 126.49462 | 100 ft | 10 kts | 95° |
| 2026-05-07 11:12 | 33.50914 | 126.49590 | 104 ft | 20 kts | 116° |
| 2026-05-07 11:13 | 33.50848 | 126.49702 | 107 ft | 15 kts | 126° |
| 2026-05-07 11:13 | 33.50792 | 126.49796 | 108 ft | 14 kts | 126° |
| 2026-05-07 11:13 | 33.50732 | 126.49896 | 109 ft | 16 kts | 126° |
| 2026-05-07 11:13 | 33.50679 | 126.49982 | 110 ft | 1 kts | 137° |
| 2026-05-07 11:14 | 33.50665 | 126.49990 | 111 ft | 4 kts | 160° |
| 2026-05-07 11:14 | 33.50637 | 126.49984 | 112 ft | 4 kts | 197° |
| 2026-05-07 11:14 | 33.50630 | 126.49980 | 112 ft | 0 kts | 210° |